Flight Track Log - Related Links

Times and Time Zones

All times are in EDT time to prevent confusion due to time zone crossing. See the RPA4886 flight status page for this flight to view local times or setup timezone preferences in your user account.

Time Position Orientation Groundspeed Altitude Reporting Facility
EDT Latitude Longitude Course Direction KTS MPH feet Rate Location/Type
Mon 05:45:45 PM 38.9833 -77.4333 North 178 205 2,200  Level Potomac TRACON
Mon 05:47:36 PM 39.0844 -77.4500 353° North 232 267 5,900 2,175 Climbing Washington Center
Mon 05:48:00 PM 39.2911 -77.4500 North  Level FlightAware Approximate
Mon 05:48:36 PM 39.1450 -77.4569 355° North 232 267 8,400  Level Washington Center
Mon 05:49:00 PM 39.3805 -77.4500 North  Level FlightAware Approximate
Mon 05:49:37 PM 39.2075 -77.4558 North 226 260 10,800  Level Washington Center
Mon 05:50:00 PM 39.4700 -77.4500 North  Level FlightAware Approximate
Mon 05:50:38 PM 39.2722 -77.4550 North 221 254 13,000  Level Washington Center
Mon 05:51:00 PM 39.5579 -77.4500 North  Level FlightAware Approximate
Mon 05:51:36 PM 39.3367 -77.4567 359° North 226 260 14,800  Level Washington Center
Mon 05:52:36 PM 39.4097 -77.4558 North 239 275 16,000 1,091 Climbing Washington Center
Mon 05:53:37 PM 39.4889 -77.4550 360° North 258 297 17,000 1,143 Climbing Washington Center
Mon 05:56:06 PM 39.7011 -77.4550 360° North 295 339 20,000 1,114 Climbing New York Center
Mon 05:57:07 PM 39.7844 -77.4522 North 295 339 20,900 492 Climbing New York Center
Mon 05:58:08 PM 39.8683 -77.4086 22° Northeast 306 352 21,000 51 Climbing New York Center
Mon 05:59:05 PM 39.9586 -77.3603 22° Northeast 317 365 21,000  Level New York Center
Mon 06:00:05 PM 40.0511 -77.3122 22° Northeast 336 387 21,000  Level New York Center
Mon 06:01:07 PM 40.1308 -77.2653 24° Northeast 341 392 21,000  Level New York Center
Mon 06:02:08 PM 40.2208 -77.2167 22° Northeast 346 398 21,000  Level New York Center
Mon 06:03:06 PM 40.3111 -77.1678 22° Northeast 346 398 21,000  Level New York Center
Mon 06:04:06 PM 40.4011 -77.1217 21° North 346 398 21,000  Level New York Center
Mon 06:05:07 PM 40.4914 -77.0725 22° Northeast 346 398 21,000  Level New York Center
Mon 06:06:05 PM 40.5797 -77.0206 24° Northeast 346 398 21,000  Level New York Center
Mon 06:07:06 PM 40.6697 -76.9739 21° North 346 398 21,000  Level New York Center
Mon 06:08:06 PM 40.7597 -76.9247 22° Northeast 346 398 21,000  Level New York Center
Mon 06:09:08 PM 40.8475 -76.8775 22° Northeast 346 398 21,000  Level New York Center
Mon 06:10:05 PM 40.9356 -76.8278 23° Northeast 341 392 21,000  Level New York Center
Mon 06:11:05 PM 41.0236 -76.7778 23° Northeast 341 392 21,000  Level New York Center
Mon 06:12:06 PM 41.1114 -76.7306 22° Northeast 341 392 21,000  Level New York Center
Mon 06:13:06 PM 41.1972 -76.6831 23° Northeast 341 392 21,000  Level New York Center
Mon 06:14:07 PM 41.2850 -76.6328 23° Northeast 341 392 21,000  Level New York Center
Mon 06:15:06 PM 41.3792 -76.5800 23° Northeast 341 392 21,000  Level New York Center
Mon 06:16:07 PM 41.4669 -76.5322 22° Northeast 341 392 21,000  Level New York Center
Mon 06:17:07 PM 41.5506 -76.4839 23° Northeast 341 392 21,000  Level New York Center
Mon 06:18:08 PM 41.6383 -76.4358 22° Northeast 341 392 21,000  Level New York Center
Mon 06:19:44 PM 41.7803 -76.3547 23° Northeast 351 404 21,000  Level Boston Center
Mon 06:20:44 PM 41.8633 -76.3069 23° Northeast 335 386 21,000  Level Boston Center
Mon 06:21:44 PM 41.9506 -76.2564 23° Northeast 330 380 21,000  Level Boston Center
Mon 06:22:44 PM 42.0333 -76.2083 23° Northeast 324 373 21,000  Level Boston Center
Mon 06:23:44 PM 42.1142 -76.1628 23° Northeast 319 367 21,000  Level Boston Center
Mon 06:24:44 PM 42.1836 -76.0828 40° Northeast 319 367 21,000  Level Boston Center
Mon 06:25:44 PM 42.2206 -75.9617 68° East 321 369 21,000  Level Boston Center
Mon 06:26:44 PM 42.2597 -75.8431 66° East 326 375 21,000  Level Boston Center
Mon 06:27:44 PM 42.2981 -75.7469 62° Northeast 331 381 21,000  Level Boston Center
Mon 06:28:44 PM 42.3344 -75.6364 66° East 341 392 21,000 -50 Level Boston Center
Mon 06:29:44 PM 42.3781 -75.4953 67° East 347 399 20,900 -850 Descending Boston Center
Mon 06:30:44 PM 42.4064 -75.3731 73° East 341 392 19,300 -1,400 Descending Boston Center
Mon 06:31:44 PM 42.4275 -75.2783 73° East 341 392 18,100 -1,550 Descending Boston Center
Mon 06:32:44 PM 42.4458 -75.1244 81° East 334 384 16,200 -1,750 Descending Boston Center
Mon 06:33:44 PM 42.4653 -75.0042 78° East 334 384 14,600 -1,600 Descending Boston Center
Mon 06:34:44 PM 42.4828 -74.8753 80° East 334 384 13,000 -1,500 Descending Boston Center
Mon 06:35:44 PM 42.4997 -74.7633 78° East 334 384 11,600 -1,281 Descending Boston Center
Mon 06:36:13 PM 42.5092 -74.6961 79° East 332 382 11,100 -600 Descending Boston Center
Mon 06:36:44 PM 42.5189 -74.6317 78° East 334 384 11,000 -90 Descending Boston Center
Mon 06:37:20 PM 42.5286 -74.5589 80° East 330 380 11,000  Level Boston Center
Mon 06:37:44 PM 42.5336 -74.5194 80° East 334 384 11,000 -689 Level Boston Center
Mon 06:38:21 PM 42.5433 -74.4325 81° East 332 382 10,300 -1,400 Descending Boston Center
Mon 06:38:44 PM 42.5503 -74.3903 77° East 329 379 9,600 -1,791 Descending Boston Center
Mon 06:39:28 PM 42.5619 -74.3175 78° East 289 333 8,300 -1,700 Descending Boston Center
Mon 06:39:44 PM 42.5667 -74.2922 76° East 303 349 7,900 -1,895 Descending Boston Center
Mon 06:40:44 PM 42.5808 -74.1828 80° East 280 322 5,900 -1,943 Descending Boston Center
Mon 06:41:29 PM 42.5925 -74.1097 78° East 262 302 4,500 -1,600 Descending Boston Center
Mon 06:41:44 PM 42.5947 -74.0956 78° East 267 307 4,300 -500 Descending Boston Center
Mon 06:42:29 PM 42.6061 -74.0169 79° East 254 292 4,000 -300 Descending Boston Center
Mon 06:42:44 PM 42.6086 -74.0000 79° East 256 295 4,000  Level Boston Center
Mon 06:43:30 PM 42.6178 -73.9242 81° East 255 293 4,000  Level Boston Center
Mon 06:44:31 PM 42.6317 -73.8314 78° East 246 283 4,000  Level Boston Center
Mon 06:45:31 PM 42.6431 -73.7356 81° East 238 274 4,000  Level Boston Center
Mon 06:46:32 PM 42.6586 -73.6483 76° East 235 270 4,000 -422 Level Boston Center
Mon 06:47:39 PM 42.6947 -73.5925 49° Northeast 208 239 3,100 -806 Descending Boston Center

Login

Don't have an account? Register now (free) for customized features, flight alerts, and more!